KMSP/MSP METAR and TAF weather

Enter ICAO airport designator
Station Type Date Time Source
KMSP METAR 2019/06/26 17:53 UTC NOAA

KMSP 261753Z 30005KT 10SM BKN100 BKN250 27/11 A3000 RMK AO2 SLP155 T02720111 10283 20183 58003


Station Type Date Time Source
KMSP Decoded METAR 2019/06/26 17:53 UTC NOAA

MINNEAPOLIS-ST PAUL INTERNATIONAL , MN, United States (KMSP) 44-52N 93-13W 265M
Jun 26, 2019 - 01:53 PM EDT / 2019.06.26 1753 UTC
Wind: from the WNW (300 degrees) at 6 MPH (5 KT):0
Visibility: 10 mile(s):0
Sky conditions: mostly cloudy
Temperature: 81.0 F (27.2 C)
Dew Point: 52.0 F (11.1 C)
Relative Humidity: 36%
Pressure (altimeter): 30 in. Hg (1015 hPa)
Pressure tendency: 0.01 inches (0.3 hPa) lower than three hours ago
ob: KMSP 261753Z 30005KT 10SM BKN100 BKN250 27/11 A3000 RMK AO2 SLP155 T02720111 10283 20183 58003
cycle: 18

Station Type Date Time Source
KMSP TAF 2019/06/26 18:24 UTC NOAA

TAF KMSP 261721Z 2618/2724 21008KT P6SM FEW150 BKN250
FM270200 14006KT P6SM BKN150
FM271200 14006KT P6SM -SHRA SCT020 BKN050 PROB30 2712/2716 5SM TSRA BKN020CB
FM271700 14007KT P6SM SCT022 BKN070

Example: see airport list